Casper, WY

6:34 PM MDT on August 01, 2014 (GMT -0600)
North of Casper, WY (KWYBARNU1) Elev 5276 ft | 42.91 °N, 106.35 °W | Change Station

Current weather conditions updated 1 minute ago

Clear
Clear
79.7 °F
Feels Like 79 °F
N
6.7
Wind Variable Wind from NNE
Gusts 15.2 mph

Tomorrow is forecast to be Much Cooler than today.

Today
High -- | Low -- °F
--% Chance of Precip.
Yesterday
High -- | Low -- °F
Precip. -- in
5:56 AM 8:25 PM
Waxing Crescent, 30% visible
Pressure 30.19 in
Visibility 10.0 miles
Clouds Clear
Heat Index 79 °F
Dew Point 39 °F
Humidity 24%
Rainfall 0.00 in
Snow Depth 0 in
UV 2 out of 12
Pollen 6.60 out of 12
Air Quality Not available.
Flu Activity Not available.
SPECI KCPR 020011Z 05011KT 10SM CLR 28/01 A3019 RMK AO2 WSHFT 2351 T02780011

More Conditions Fewer Conditions

Pressure 30.19 in
Visibility 10.0 miles
Clouds Clear
Heat Index 79 °F
Dew Point 39 °F
Humidity 24%
Rainfall 0.00 in
Snow Depth 0 in
UV 2 out of 12
Pollen 6.60 out of 12
Air Quality Not available.
Flu Activity Not available.
SPECI KCPR 020011Z 05011KT 10SM CLR 28/01 A3019 RMK AO2 WSHFT 2351 T02780011

More Conditions Fewer Conditions

10-Day Weather Forecast

Almanac

Astronomy

Aug. 01, 2014 Rise Set
Actual Time 5:56 AM MDT 8:25 PM MDT
Civil Twilight 5:24 AM MDT 8:57 PM MDT
Nautical Twilight 4:44 AM MDT 9:37 PM MDT
Astronomical Twilight 3:59 AM MDT 10:22 PM MDT
Moon 11:32 AM MDT (8/1) 11:02 PM MDT (8/1)
Length of Visible Light 15h 33m
Length of Day
14h 29m
Tomorrow will be 2m 14s shorter.
Waxing Crescent, 30% of the Moon is Illuminated
Today
Waxing Crescent
Aug 3
First Quarter
Aug 10
Full
Aug 17
Last Quarter
Aug 25
New

Today's Extremes

State Highs State Lows

Community

WunderPhotos

Upload Photos

1,739,763 photos uploaded!

Nearby

Snow Depth

Station Depth Elevation
Casper Mountain 0 in 7850 ft
Cinnabar Park 0 in 9690 ft
Crow Creek 2 in 8330 ft
Sandstone R.S. 11 in 8150 ft
Big Sandy Opening 0 in 9080 ft

Earthquake Activity

City Distance Mag. Time & Date
No recent earthquake activity has been reported nearby.
Minimum magnitude displayed is 2.5.

Coastal Water Temperatures

Place Temperature
No Stations Reporting

Nearby Weather Stations

Station Location Temp. Heat Index Dew Point Humidity Wind Precip. Elev Updated Type
HADS NORTH PLATTE RIVER AT CASPER WY, Casper, WY 82 °F 80 °F - - North  at  - 0.00 in / hr 5100 ft 5:30 PM MDT MADIS
North of Casper, WY, Bar Nunn, WY 79.7 °F 79 °F 39 °F 24% NNE  at  6.7 mph 0.00 in / hr 5276 ft 6:32 PM MDT Normal
North of Rolling Hills WY, Glenrock, WY 83.6 °F 81 °F 31 °F 15% NE  at  7.0 mph 0.00 in / hr 5421 ft 5:35 PM MDT Rapid Fire
RAWS CASPER MOUNTAIN WY, Casper, WY 76 °F 76 °F 29 °F 18% NE  at  3 mph 0.00 in / hr 7740 ft 5:52 PM MDT MADIS

Show More Stations Show Fewer Stations